Time;durP1;ratioP1;P1;durP2;ratioP2;P2;SDS_P1;SDS_P2;PMS_P1;PMS_P2;Temp;Humidity;BMP_temperature;BMP_pressure;BME280_temperature;BME280_humidity;BME280_pressure;Samples;Min_cycle;Max_cycle;Signal;HPM_P1;HPM_P2
2021/05/07 00:01:00;;;;;;;8.77;7.87;;;7.60;69.50;8.60;99562.00;;;;5035679;28;20490;-80
2021/05/07 00:03:28;;;;;;;8.33;7.53;;;7.60;69.80;8.60;99564.00;;;;5054702;28;20484;-83
2021/05/07 00:05:56;;;;;;;8.77;7.90;;;7.50;70.10;217.30;160389.00;;;;5033404;28;20476;-80
2021/05/07 00:08:29;;;;;;;8.50;7.60;;;7.50;70.40;8.60;99594.00;;;;5048120;28;20538;-82
2021/05/07 00:10:57;;;;;;;8.70;7.73;;;7.50;71.30;8.60;99586.00;;;;5030201;28;20485;-80
2021/05/07 00:13:28;;;;;;;9.83;8.37;;;7.50;70.70;8.60;99582.00;;;;5031429;28;20456;-81
2021/05/07 00:15:56;;;;;;;7.90;7.20;;;7.50;71.30;8.60;99585.00;;;;5044646;28;20522;-79
2021/05/07 00:18:24;;;;;;;9.20;7.60;;;7.50;70.70;8.60;99583.00;;;;5046553;28;20480;-83
2021/05/07 00:20:52;;;;;;;9.90;7.70;;;7.60;70.50;8.70;99587.00;;;;5030990;28;20460;-80
2021/05/07 00:23:19;;;;;;;8.90;7.53;;;7.60;70.70;8.70;99591.00;;;;5031290;28;20567;-80
2021/05/07 00:25:50;;;;;;;8.43;7.63;;;7.60;71.20;8.70;99586.00;;;;5029524;28;20485;-81
2021/05/07 00:28:19;;;;;;;8.40;7.50;;;7.60;71.90;8.70;99589.00;;;;5040504;28;20488;-82
2021/05/07 00:30:47;;;;;;;9.27;8.37;;;7.60;72.10;8.70;99593.00;;;;5033121;28;20476;-80
2021/05/07 00:33:15;;;;;;;9.00;8.10;;;7.60;72.20;8.70;68199.00;;;;5030319;28;20572;-82
2021/05/07 00:35:42;;;;;;;10.80;9.40;;;7.60;72.50;8.80;99580.00;;;;5029850;28;20487;-81
2021/05/07 00:38:10;;;;;;;12.03;10.80;;;7.60;72.70;8.80;68207.00;;;;5029150;28;20516;-80
2021/05/07 00:40:38;;;;;;;10.90;9.80;;;7.60;73.10;8.80;99595.00;;;;5032278;28;20460;-82
2021/05/07 00:43:07;;;;;;;11.13;9.93;;;7.60;73.40;8.90;99609.00;;;;5047427;28;20818;-82
2021/05/07 00:45:35;;;;;;;11.10;10.00;;;7.70;73.60;8.90;99608.00;;;;5059463;28;20457;-85
2021/05/07 00:48:07;;;;;;;14.80;10.97;;;7.70;73.00;9.00;68250.00;;;;5045626;28;20947;-83
2021/05/07 00:50:37;;;;;;;10.37;9.40;;;7.70;73.40;9.00;99604.00;;;;5034994;28;20476;-81
2021/05/07 00:53:05;;;;;;;11.13;9.90;;;7.70;72.80;9.00;99593.00;;;;5033674;28;20460;-85
2021/05/07 00:55:36;;;;;;;9.60;8.70;;;7.70;73.00;8.90;99606.00;;;;5048471;28;20461;-84
2021/05/07 00:58:07;;;;;;;9.40;8.40;;;7.70;71.30;217.30;160478.00;;;;5047980;28;20527;-82
2021/05/07 01:00:36;;;;;;;9.20;8.10;;;7.80;71.00;8.80;99589.00;;;;5047909;28;20472;-79
2021/05/07 01:03:05;;;;;;;9.40;8.47;;;7.70;71.30;8.80;99594.00;;;;5047665;28;20462;-79
2021/05/07 01:05:32;;;;;;;9.10;8.30;;;7.70;71.40;8.80;99604.00;;;;5033119;28;20532;-79
2021/05/07 01:08:01;;;;;;;8.90;8.00;;;7.70;71.40;8.70;99596.00;;;;5034302;28;20465;-79
2021/05/07 01:10:29;;;;;;;9.10;8.20;;;7.60;71.00;8.70;99593.00;;;;5029990;28;20571;-80
2021/05/07 01:12:59;;;;;;;8.10;7.30;;;7.60;71.20;8.70;68193.00;;;;5030218;28;20508;-79
2021/05/07 01:15:44;;;;;;;8.30;7.50;;;7.60;70.90;8.70;99598.00;;;;5021461;28;20475;-79
2021/05/07 01:18:12;;;;;;;7.93;7.13;;;7.60;70.80;8.80;99600.00;;;;5029103;28;20464;-81
2021/05/07 01:20:42;;;;;;;8.90;7.37;;;7.70;70.30;8.80;99598.00;;;;5027696;28;20451;-79
2021/05/07 01:23:11;;;;;;;9.20;8.30;;;7.70;70.80;8.90;99601.00;;;;5028005;28;20452;-81
2021/05/07 01:25:42;;;;;;;9.60;7.47;;;7.80;70.80;8.90;68234.00;;;;5020263;28;20453;-79
2021/05/07 01:28:12;;;;;;;8.20;7.37;;;7.70;70.40;8.90;99588.00;;;;5045863;28;20560;-80
2021/05/07 01:30:42;;;;;;;7.43;6.70;;;7.80;69.90;8.90;99589.00;;;;5044438;28;20500;-81
2021/05/07 01:33:13;;;;;;;8.03;7.30;;;7.80;69.90;9.00;99601.00;;;;5038609;28;20448;-84
2021/05/07 01:35:46;;;;;;;10.83;7.43;;;7.80;69.50;9.00;99592.00;;;;5036939;28;20540;-82
2021/05/07 01:38:16;;;;;;;8.90;7.60;;;7.70;69.70;8.90;99606.00;;;;5052776;28;20472;-81
2021/05/07 01:40:46;;;;;;;8.50;7.63;;;7.70;69.30;8.90;99601.00;;;;5023907;28;20452;-80
2021/05/07 01:43:15;;;;;;;8.53;7.73;;;7.70;69.80;8.90;99612.00;;;;5032540;28;20883;-80
2021/05/07 01:45:47;;;;;;;7.53;6.83;;;7.70;69.90;8.90;99612.00;;;;5032316;28;20461;-81
2021/05/07 01:48:17;;;;;;;8.63;7.73;;;7.60;70.20;8.90;99611.00;;;;5034402;28;20481;-81
2021/05/07 01:50:48;;;;;;;7.83;7.13;;;7.70;70.40;8.80;99617.00;;;;5034489;28;20934;-80
2021/05/07 01:53:16;;;;;;;7.73;7.03;;;7.70;70.00;8.80;99618.00;;;;5034619;28;20498;-80
2021/05/07 01:55:46;;;;;;;8.17;6.27;;;7.70;69.60;8.80;99611.00;;;;5043256;28;20445;-82
2021/05/07 01:58:21;;;;;;;8.10;7.30;;;7.60;69.70;8.80;99621.00;;;;5061495;28;20563;-81
2021/05/07 02:00:51;;;;;;;9.67;7.30;;;7.60;70.10;8.80;99634.00;;;;5052853;28;20483;-81
2021/05/07 02:03:19;;;;;;;8.47;7.43;;;7.60;70.50;8.80;99634.00;;;;5053465;28;20445;-82
2021/05/07 02:05:58;;;;;;;8.17;7.37;;;7.70;70.30;217.30;160472.00;;;;5063552;28;20459;-80
2021/05/07 02:08:27;;;;;;;7.70;7.00;;;7.60;70.10;8.80;99635.00;;;;5050522;28;20489;-81
2021/05/07 02:10:54;;;;;;;7.40;6.70;;;7.70;70.30;8.90;99602.00;;;;5049882;28;20775;-81
2021/05/07 02:13:22;;;;;;;7.50;6.80;;;7.70;70.60;8.90;99627.00;;;;5049636;28;20473;-82
2021/05/07 02:15:51;;;;;;;8.73;7.50;;;7.70;71.40;9.00;99624.00;;;;5043696;28;20441;-79
2021/05/07 02:18:24;;;;;;;8.57;7.70;;;7.70;71.60;8.90;99634.00;;;;5037141;28;20480;-79
2021/05/07 02:20:55;;;;;;;8.67;7.87;;;7.70;71.80;9.00;99637.00;;;;5023870;28;20461;-79
2021/05/07 02:23:28;;;;;;;8.43;7.17;;;7.60;70.90;8.90;99649.00;;;;5033969;28;20487;-80
2021/05/07 02:25:57;;;;;;;8.20;7.50;;;7.70;70.70;8.90;99645.00;;;;5049224;28;20489;-81
2021/05/07 02:28:31;;;;;;;8.53;7.43;;;7.70;70.00;8.90;99648.00;;;;5039458;28;20507;-82
2021/05/07 02:30:58;;;;;;;9.00;8.20;;;7.70;69.10;8.90;99657.00;;;;5030239;28;20973;-80
2021/05/07 02:33:26;;;;;;;8.40;7.60;;;7.80;68.10;8.90;99646.00;;;;5043951;28;20515;-80
2021/05/07 02:35:53;;;;;;;8.57;7.77;;;7.70;68.00;8.90;99650.00;;;;5035309;28;20464;-79
2021/05/07 02:38:21;;;;;;;11.13;8.07;;;7.70;68.30;8.90;99656.00;;;;5035793;28;20859;-80
2021/05/07 02:40:50;;;;;;;8.77;7.97;;;7.70;68.70;8.90;99663.00;;;;5040792;28;20487;-82
2021/05/07 02:43:17;;;;;;;10.23;8.27;;;7.70;68.80;8.90;99661.00;;;;5038517;28;20467;-82
2021/05/07 02:45:45;;;;;;;8.50;7.70;;;7.70;69.10;8.80;99320.00;;;;5066004;28;20456;-83
2021/05/07 02:48:13;;;;;;;9.17;7.43;;;7.70;69.30;8.80;99669.00;;;;5065687;28;20473;-82
2021/05/07 02:50:40;;;;;;;8.67;7.80;;;7.60;68.70;8.70;99676.00;;;;5052896;28;20425;-81
2021/05/07 02:53:08;;;;;;;8.17;7.37;;;7.60;67.90;8.70;99682.00;;;;5045547;28;20445;-81
2021/05/07 02:55:36;;;;;;;8.70;7.70;;;7.60;68.80;8.70;99696.00;;;;5043365;28;20557;-79
2021/05/07 02:58:06;;;;;;;8.97;8.07;;;7.60;68.60;8.70;99699.00;;;;5045472;28;21002;-80
2021/05/07 03:00:33;;;;;;;9.10;8.27;;;7.60;69.00;8.70;99701.00;;;;5031567;28;20556;-82
2021/05/07 03:03:01;;;;;;;8.90;7.90;;;7.60;69.10;8.70;99697.00;;;;5039150;28;20464;-80
2021/05/07 03:05:28;;;;;;;10.00;9.07;;;7.70;68.90;8.70;99697.00;;;;5034269;28;20453;-80
2021/05/07 03:07:56;;;;;;;10.87;9.90;;;7.60;68.00;52.70;160430.00;;;;5029878;28;20469;-79
2021/05/07 03:10:23;;;;;;;10.10;9.10;;;7.60;65.90;8.60;99690.00;;;;5020685;28;20579;-80
2021/05/07 03:12:51;;;;;;;10.60;9.60;;;7.50;63.70;8.50;99707.00;;;;5033357;28;21013;-80
2021/05/07 03:15:19;;;;;;;11.83;10.83;;;7.50;59.20;8.40;99703.00;;;;5051521;28;20499;-80
2021/05/07 03:17:49;;;;;;;12.50;11.30;;;7.40;57.60;8.40;99689.00;;;;5028777;28;20512;-82
2021/05/07 03:20:17;;;;;;;12.73;11.53;;;7.40;55.30;8.30;99714.00;;;;5035337;28;20540;-79
2021/05/07 03:22:45;;;;;;;12.80;11.60;;;7.30;52.10;8.20;99700.00;;;;5031016;28;20445;-80
2021/05/07 03:25:14;;;;;;;13.20;11.90;;;7.20;52.70;8.10;99727.00;;;;5036610;28;20461;-79
2021/05/07 03:27:41;;;;;;;14.63;12.03;;;7.20;51.50;8.10;99717.00;;;;5018177;28;20945;-79
2021/05/07 03:30:12;;;;;;;14.20;12.80;;;7.10;52.20;8.10;99714.00;;;;5027156;28;20453;-79
2021/05/07 03:32:41;;;;;;;14.33;13.03;;;7.10;52.50;8.20;99748.00;;;;5015818;28;20477;-80
2021/05/07 03:35:10;;;;;;;13.27;11.97;;;7.20;54.90;8.10;99729.00;;;;5043312;28;20519;-79
2021/05/07 03:37:38;;;;;;;15.10;13.50;;;7.10;51.30;8.10;99730.00;;;;5033308;28;20487;-79
2021/05/07 03:40:07;;;;;;;15.37;13.97;;;7.10;50.20;8.10;99744.00;;;;5024524;28;20515;-79
2021/05/07 03:42:35;;;;;;;12.93;11.63;;;7.00;51.30;8.00;99732.00;;;;5033182;28;20456;-79
2021/05/07 03:45:03;;;;;;;14.63;13.23;;;7.00;49.70;8.00;99741.00;;;;5046965;28;20459;-79
2021/05/07 03:47:30;;;;;;;15.40;14.00;;;7.00;51.00;8.00;99750.00;;;;5022167;28;21134;-80
2021/05/07 03:49:59;;;;;;;16.30;14.80;;;6.90;51.80;8.00;99758.00;;;;5027466;28;20568;-79
2021/05/07 03:52:26;;;;;;;16.10;14.70;;;6.90;51.00;7.90;68017.00;;;;5026698;28;20480;-80
2021/05/07 03:54:54;;;;;;;16.90;15.20;;;6.90;52.30;7.90;99763.00;;;;5026258;28;20480;-79
2021/05/07 03:57:25;;;;;;;20.13;16.70;;;6.80;53.10;7.90;99768.00;;;;5026002;28;21055;-79
2021/05/07 03:59:52;;;;;;;19.70;17.80;;;6.80;53.20;8.00;99784.00;;;;5016356;28;20492;-79
2021/05/07 04:02:20;;;;;;;20.17;18.10;;;6.80;54.10;7.90;99777.00;;;;5016652;28;21517;-80
2021/05/07 04:04:48;;;;;;;21.57;17.50;;;6.70;52.80;7.90;99782.00;;;;5024778;28;20967;-80
2021/05/07 04:07:17;;;;;;;20.00;18.10;;;6.70;53.00;7.90;68009.00;;;;5025110;28;20522;-80
2021/05/07 04:09:49;;;;;;;19.17;17.43;;;6.70;53.80;7.90;99809.00;;;;5025325;28;20464;-79
2021/05/07 04:12:18;;;;;;;17.50;15.80;;;6.60;52.30;7.80;99796.00;;;;5028465;28;20477;-81
2021/05/07 04:14:46;;;;;;;16.97;15.27;;;6.60;49.70;7.70;99767.00;;;;5034155;28;21083;-80
2021/05/07 04:17:14;;;;;;;19.80;17.90;;;6.50;50.60;7.60;99806.00;;;;5020591;28;21460;-80
2021/05/07 04:19:41;;;;;;;19.47;17.43;;;6.50;50.50;7.50;99820.00;;;;5033150;28;20510;-79
2021/05/07 04:22:09;;;;;;;20.53;18.43;;;6.40;49.30;7.40;99824.00;;;;5028836;28;20452;-82
2021/05/07 04:24:39;;;;;;;19.40;17.50;;;6.30;50.10;7.40;67893.00;;;;5032379;28;20482;-79
2021/05/07 04:27:06;;;;;;;21.13;19.03;;;6.30;49.70;7.40;99825.00;;;;5030761;28;20452;-81
2021/05/07 04:29:34;;;;;;;21.80;19.70;;;6.30;48.70;7.40;99840.00;;;;5026662;28;20821;-79
2021/05/07 04:32:02;;;;;;;21.03;18.90;;;6.20;49.40;7.50;99841.00;;;;5024188;28;20473;-79
2021/05/07 04:34:29;;;;;;;21.50;19.50;;;6.20;50.70;7.50;99850.00;;;;5024299;28;20583;-81
2021/05/07 04:36:57;;;;;;;22.60;20.20;;;6.30;51.40;7.60;99857.00;;;;5018774;28;20460;-79
2021/05/07 04:39:24;;;;;;;22.10;19.90;;;6.30;51.90;7.80;99861.00;;;;5018228;28;20544;-79
2021/05/07 04:41:53;;;;;;;23.77;19.23;;;6.40;50.30;217.30;160119.00;;;;5027344;28;20461;-80
2021/05/07 04:44:20;;;;;;;20.13;18.23;;;6.60;50.60;8.00;99863.00;;;;5026513;28;20500;-80
2021/05/07 04:46:48;;;;;;;19.10;17.27;;;6.70;46.20;8.00;99865.00;;;;5028008;28;20479;-79
2021/05/07 04:49:15;;;;;;;21.63;19.47;;;6.80;46.00;8.00;99849.00;;;;5027213;28;20484;-79
2021/05/07 04:51:43;;;;;;;21.23;19.13;;;6.70;45.70;7.90;99864.00;;;;5035005;28;20477;-82
2021/05/07 04:54:10;;;;;;;21.50;19.50;;;6.70;45.40;8.00;99876.00;;;;5044317;28;20548;-82
2021/05/07 04:56:37;;;;;;;20.90;18.90;;;6.80;45.30;8.10;99861.00;;;;5035987;28;20499;-80
2021/05/07 04:59:06;;;;;;;20.80;18.80;;;6.80;44.10;8.10;99869.00;;;;5024327;28;21080;-79
2021/05/07 05:01:33;;;;;;;20.17;18.00;;;6.80;44.20;8.20;99877.00;;;;5021664;28;20573;-79
2021/05/07 05:04:01;;;;;;;20.10;18.17;;;6.90;43.20;8.30;99866.00;;;;5031910;28;20498;-81
2021/05/07 05:06:29;;;;;;;20.27;18.37;;;6.90;43.10;8.30;99862.00;;;;5032203;28;20452;-82
2021/05/07 05:08:56;;;;;;;22.10;20.10;;;7.00;42.30;8.40;99860.00;;;;5044785;28;20469;-81
2021/05/07 05:11:23;;;;;;;21.93;19.73;;;7.10;42.50;8.50;99872.00;;;;5057124;28;20480;-80
2021/05/07 05:13:51;;;;;;;23.00;20.60;;;7.10;43.80;8.50;99871.00;;;;5065737;28;20443;-82
2021/05/07 05:16:19;;;;;;;24.33;21.73;;;7.10;43.60;8.60;99873.00;;;;5051359;28;20511;-80
2021/05/07 05:18:47;;;;;;;23.67;21.37;;;7.20;44.10;8.70;99877.00;;;;5034419;28;20512;-79
2021/05/07 05:21:14;;;;;;;23.67;21.33;;;7.30;44.20;8.80;99884.00;;;;5042443;28;20543;-79
2021/05/07 05:23:48;;;;;;;23.43;20.77;;;7.30;44.20;8.90;99871.00;;;;5032687;28;20441;-81
2021/05/07 05:26:16;;;;;;;23.10;20.67;;;7.40;43.90;8.90;99871.00;;;;5048477;28;20522;-79
2021/05/07 05:28:44;;;;;;;23.00;20.90;;;7.40;42.70;9.00;99876.00;;;;5026048;28;20483;-82
2021/05/07 05:31:13;;;;;;;23.07;20.57;;;7.50;41.00;9.10;99890.00;;;;5040649;28;20518;-81
2021/05/07 05:33:41;;;;;;;26.33;20.80;;;7.60;41.70;9.20;99891.00;;;;5034618;28;20475;-79
2021/05/07 05:36:09;;;;;;;22.40;20.10;;;7.80;41.80;9.30;99905.00;;;;5045732;28;20540;-80
2021/05/07 05:38:36;;;;;;;21.87;19.67;;;7.80;40.50;9.30;99902.00;;;;5052453;28;20538;-80
2021/05/07 05:41:04;;;;;;;22.93;20.73;;;7.90;39.30;9.30;99909.00;;;;5060986;28;20453;-80
2021/05/07 05:43:31;;;;;;;23.63;21.20;;;8.00;39.90;9.30;99913.00;;;;5034459;28;20806;-80
2021/05/07 05:45:59;;;;;;;23.47;21.07;;;8.00;39.50;9.40;99912.00;;;;5044542;28;20535;-81
2021/05/07 05:48:26;;;;;;;21.83;19.80;;;8.00;40.20;52.70;160716.00;;;;5041831;28;20487;-82
2021/05/07 05:50:55;;;;;;;25.60;22.90;;;8.00;39.90;9.40;99918.00;;;;5043249;28;20452;-80
2021/05/07 05:53:22;;;;;;;23.90;21.40;;;8.10;41.50;9.50;99914.00;;;;5044520;28;20464;-79
2021/05/07 05:55:50;;;;;;;24.50;21.37;;;8.20;41.90;9.50;99928.00;;;;5039723;28;20887;-80
2021/05/07 05:58:17;;;;;;;24.57;21.70;;;8.20;42.10;9.60;99921.00;;;;5046012;28;20485;-80
2021/05/07 06:00:44;;;;;;;21.63;19.43;;;8.20;42.50;9.60;99940.00;;;;5059729;28;20472;-81
2021/05/07 06:03:12;;;;;;;24.13;21.73;;;8.30;41.10;9.70;99933.00;;;;5046501;28;21196;-80
2021/05/07 06:05:40;;;;;;;22.30;19.97;;;8.30;41.70;9.80;99936.00;;;;5047436;28;20472;-82
2021/05/07 06:08:08;;;;;;;22.70;19.70;;;8.40;41.90;9.80;99937.00;;;;5063847;28;20487;-81
2021/05/07 06:10:37;;;;;;;20.97;18.77;;;8.50;41.10;9.80;99942.00;;;;5047841;28;20461;-81
2021/05/07 06:13:05;;;;;;;23.73;21.33;;;8.60;39.30;9.80;99949.00;;;;5063620;28;20483;-81
2021/05/07 06:15:33;;;;;;;20.90;18.77;;;8.50;41.00;9.90;99944.00;;;;5040740;28;20445;-80
2021/05/07 06:18:00;;;;;;;21.97;19.77;;;8.60;40.80;9.90;99945.00;;;;5056884;28;20526;-80
2021/05/07 06:20:28;;;;;;;20.27;18.17;;;8.60;40.40;9.90;99942.00;;;;5047099;28;20460;-81
2021/05/07 06:22:55;;;;;;;21.77;19.33;;;8.70;39.70;217.30;160944.00;;;;5051076;28;20453;-81
2021/05/07 06:25:25;;;;;;;19.73;17.73;;;8.80;39.20;9.80;99966.00;;;;5053331;28;20437;-81
2021/05/07 06:27:53;;;;;;;20.80;18.63;;;8.70;37.20;10.00;99948.00;;;;5054045;28;20521;-82
2021/05/07 06:30:21;;;;;;;21.20;18.00;;;8.80;38.20;10.40;99954.00;;;;5049640;28;20441;-79
2021/05/07 06:32:49;;;;;;;21.67;17.70;;;9.00;37.60;10.80;99968.00;;;;5038304;28;20531;-81
2021/05/07 06:35:17;;;;;;;18.83;16.23;;;9.40;36.10;11.20;99960.00;;;;5035448;28;20951;-81
2021/05/07 06:37:44;;;;;;;17.50;15.70;;;9.70;32.70;11.40;99961.00;;;;5036735;28;20549;-80
2021/05/07 06:40:15;;;;;;;17.57;15.60;;;9.90;30.30;11.10;99961.00;;;;5034189;28;20997;-80
2021/05/07 06:42:46;;;;;;;18.67;16.77;;;9.70;29.20;10.80;99970.00;;;;5050012;28;20492;-81
2021/05/07 06:45:16;;;;;;;19.10;16.90;;;9.40;30.30;217.30;161190.00;;;;5064715;28;20464;-81
2021/05/07 06:47:44;;;;;;;16.67;15.03;;;9.10;30.80;10.30;99970.00;;;;5041611;28;20485;-79
2021/05/07 06:50:13;;;;;;;17.17;15.57;;;8.90;30.90;10.50;99974.00;;;;5034281;28;20532;-80
2021/05/07 06:52:40;;;;;;;16.53;14.67;;;9.10;30.80;217.30;161190.00;;;;5043347;28;20511;-80
2021/05/07 06:55:11;;;;;;;12.10;10.90;;;9.20;30.20;10.50;68631.00;;;;5039729;28;20486;-80
2021/05/07 06:57:39;;;;;;;13.43;12.20;;;9.40;25.50;10.60;99990.00;;;;5037016;28;20483;-80
2021/05/07 07:00:11;;;;;;;14.30;12.87;;;9.40;25.30;10.50;99992.00;;;;5036735;28;20511;-82
2021/05/07 07:02:39;;;;;;;13.00;11.70;;;9.40;26.20;10.60;99990.00;;;;5037077;28;20461;-79
2021/05/07 07:05:56;;;;;;;12.77;11.57;;;9.40;25.60;10.70;99985.00;;;;5039016;28;20453;-80
2021/05/07 07:08:24;;;;;;;14.70;13.27;;;9.50;24.00;10.70;68642.00;;;;5048878;28;20485;-81
2021/05/07 07:10:52;;;;;;;15.17;13.40;;;9.60;26.30;10.90;68669.00;;;;5031095;28;20522;-79
2021/05/07 07:13:19;;;;;;;16.23;14.63;;;9.60;26.00;10.70;100003.00;;;;5032479;28;20481;-80
2021/05/07 07:15:48;;;;;;;14.10;12.10;;;9.50;28.00;11.00;99976.00;;;;5040632;28;20467;-81
2021/05/07 07:18:19;;;;;;;14.77;12.07;;;9.70;24.30;11.50;99989.00;;;;5032808;28;20481;-81
2021/05/07 07:20:48;;;;;;;11.93;10.83;;;10.00;21.10;11.70;99990.00;;;;5032644;28;20466;-81
2021/05/07 07:23:16;;;;;;;10.40;9.40;;;10.30;18.70;11.70;100008.00;;;;5033847;28;21136;-80
2021/05/07 07:25:44;;;;;;;10.27;9.20;;;10.30;17.30;11.60;99998.00;;;;5027707;28;20468;-81
2021/05/07 07:28:12;;;;;;;11.93;10.60;;;10.30;15.40;11.50;100001.00;;;;5031752;28;20982;-79
2021/05/07 07:30:40;;;;;;;14.10;9.93;;;10.30;16.70;11.50;100014.00;;;;5040499;28;20539;-80
2021/05/07 07:33:08;;;;;;;10.53;9.43;;;10.30;16.30;11.20;100003.00;;;;5032748;28;20491;-80
2021/05/07 07:35:36;;;;;;;13.23;9.33;;;10.10;16.60;11.40;100012.00;;;;5029982;28;20455;-80
2021/05/07 07:38:04;;;;;;;10.67;9.77;;;10.20;18.00;11.50;100016.00;;;;5022585;28;20482;-82
2021/05/07 07:40:33;;;;;;;11.97;8.90;;;10.30;17.10;11.40;100024.00;;;;5031983;28;20487;-80
2021/05/07 07:43:00;;;;;;;11.17;9.63;;;10.20;15.20;11.00;100011.00;;;;5029888;28;20493;-81
2021/05/07 07:45:28;;;;;;;11.50;10.30;;;9.90;16.20;217.30;161450.00;;;;5033094;28;20452;-83
2021/05/07 07:47:56;;;;;;;11.10;10.00;;;9.90;16.80;11.30;99997.00;;;;5049021;28;20475;-80
2021/05/07 07:50:24;;;;;;;10.43;9.47;;;10.10;14.60;11.70;100014.00;;;;5034250;28;20467;-84
2021/05/07 07:52:52;;;;;;;12.30;10.90;;;10.50;14.60;11.80;100011.00;;;;5034307;28;20952;-80
2021/05/07 07:55:20;;;;;;;10.10;9.10;;;10.50;13.80;11.30;100017.00;;;;5046829;28;20463;-82
2021/05/07 07:57:48;;;;;;;9.67;8.77;;;10.10;10.70;11.30;100018.00;;;;5021813;28;20500;-82
2021/05/07 08:00:17;;;;;;;14.17;10.30;;;10.10;10.80;11.50;100029.00;;;;5024417;28;20515;-81
2021/05/07 08:02:46;;;;;;;10.10;9.10;;;10.30;10.80;11.00;100019.00;;;;5048338;28;20461;-82
2021/05/07 08:05:15;;;;;;;11.57;9.37;;;10.00;9.60;11.20;100018.00;;;;5047776;28;20820;-81
2021/05/07 08:07:45;;;;;;;8.90;8.00;;;10.10;10.80;11.30;100025.00;;;;5039164;28;20912;-81
2021/05/07 08:10:18;;;;;;;9.33;8.10;;;10.30;8.60;11.40;100028.00;;;;5030913;28;20484;-82
2021/05/07 08:12:46;;;;;;;9.27;8.30;;;10.40;8.00;11.50;100022.00;;;;5034679;28;20469;-81
2021/05/07 08:15:14;;;;;;;8.30;7.53;;;10.50;4.80;11.30;100035.00;;;;5044529;28;20480;-83
2021/05/07 08:17:42;;;;;;;10.57;8.20;;;10.40;3.50;11.40;100030.00;;;;5054510;28;20500;-82
2021/05/07 08:20:12;;;;;;;11.03;8.80;;;10.40;4.00;11.50;100027.00;;;;5049386;28;20448;-82
2021/05/07 08:22:40;;;;;;;10.50;8.90;;;10.50;4.10;11.60;100041.00;;;;5038144;28;20453;-80
2021/05/07 08:25:11;;;;;;;8.90;8.00;;;10.70;6.10;11.60;100037.00;;;;5041998;28;20464;-81
2021/05/07 08:27:39;;;;;;;12.63;8.80;;;10.70;3.70;11.60;100041.00;;;;5049814;28;20477;-81
2021/05/07 08:30:09;;;;;;;9.13;8.30;;;10.70;2.60;11.60;100049.00;;;;5048444;28;20453;-83
2021/05/07 08:32:37;;;;;;;8.20;7.40;;;10.70;1.10;11.60;100036.00;;;;5047062;28;20537;-82
2021/05/07 08:35:06;;;;;;;8.77;6.87;;;10.70;1.30;11.50;100046.00;;;;5050013;28;20464;-81
2021/05/07 08:37:40;;;;;;;9.20;7.63;;;10.70;1.00;11.50;100046.00;;;;5030036;28;20815;-80
2021/05/07 08:40:14;;;;;;;8.80;7.90;;;10.70;1.00;11.80;100067.00;;;;5055923;28;20463;-80
2021/05/07 08:42:43;;;;;;;9.27;8.37;;;10.90;2.20;12.10;100065.00;;;;5037088;28;20476;-81
2021/05/07 08:45:12;;;;;;;9.60;7.97;;;11.10;1.10;12.20;100064.00;;;;5041101;28;20453;-83
2021/05/07 08:47:46;;;;;;;8.90;8.00;;;11.30;1.10;12.50;100065.00;;;;5024439;28;20906;-80
2021/05/07 08:50:14;;;;;;;9.80;8.97;;;11.50;1.00;12.50;100069.00;;;;5032605;28;20445;-81
2021/05/07 08:52:41;;;;;;;11.83;9.00;;;11.50;1.70;12.60;100060.00;;;;5042224;28;20492;-80
2021/05/07 08:55:11;;;;;;;9.50;8.60;;;11.60;1.00;12.80;100074.00;;;;5029775;28;20483;-80
2021/05/07 08:57:39;;;;;;;12.80;9.03;;;11.80;1.00;13.00;100038.00;;;;5031708;28;20467;-79
2021/05/07 09:00:11;;;;;;;8.07;7.03;;;12.00;1.00;13.10;100084.00;;;;5026689;28;20453;-80
2021/05/07 09:02:38;;;;;;;8.03;6.80;;;12.10;1.00;13.00;100065.00;;;;5022919;28;21181;-80
2021/05/07 09:05:07;;;;;;;7.73;7.03;;;12.00;1.00;13.30;100082.00;;;;5031981;28;20456;-80
2021/05/07 09:07:35;;;;;;;8.70;7.80;;;12.20;1.00;13.30;100075.00;;;;5038318;28;21003;-80
2021/05/07 09:10:06;;;;;;;10.13;8.67;;;12.20;1.00;13.40;100077.00;;;;5029162;28;20493;-80
2021/05/07 09:12:37;;;;;;;10.20;7.57;;;12.30;1.00;13.70;100081.00;;;;5029936;28;20530;-80
2021/05/07 09:15:09;;;;;;;9.63;8.37;;;12.50;1.00;13.90;100077.00;;;;5041334;28;20475;-81
2021/05/07 09:17:39;;;;;;;9.60;8.70;;;12.80;1.00;14.10;100067.00;;;;5030261;28;21126;-81
2021/05/07 09:20:10;;;;;;;9.00;8.10;;;13.00;1.00;14.10;100069.00;;;;5029254;28;20455;-81
2021/05/07 09:22:39;;;;;;;11.23;7.83;;;12.90;1.00;14.60;100087.00;;;;5029168;28;20483;-79
2021/05/07 09:25:14;;;;;;;8.30;7.50;;;13.30;1.00;15.30;100079.00;;;;5029233;28;20483;-77
2021/05/07 09:27:44;;;;;;;8.57;7.77;;;13.90;1.00;15.70;100070.00;;;;5023316;28;20964;-78
2021/05/07 09:30:24;;;;;;;8.40;7.40;;;14.30;1.00;15.60;100085.00;;;;5021102;28;20530;-79
2021/05/07 09:32:54;;;;;;;7.33;6.63;;;14.20;1.00;15.50;100084.00;;;;5028794;28;20909;-79
2021/05/07 09:35:27;;;;;;;8.67;7.20;;;13.90;1.00;15.00;100078.00;;;;5039711;28;20462;-80
2021/05/07 09:37:59;;;;;;;7.67;6.83;;;13.40;1.00;14.40;100077.00;;;;5035346;28;20511;-79
2021/05/07 09:40:28;;;;;;;10.37;7.83;;;12.80;1.00;14.00;100089.00;;;;5037064;28;20460;-79
2021/05/07 09:43:07;;;;;;;7.60;6.80;;;12.50;1.00;13.80;100102.00;;;;5047459;28;20433;-79
2021/05/07 09:45:37;;;;;;;6.70;6.10;;;12.40;1.00;13.60;100105.00;;;;5066094;28;20465;-79
2021/05/07 09:48:17;;;;;;;8.03;7.23;;;12.30;1.00;13.40;100103.00;;;;5033735;28;20481;-80
2021/05/07 09:50:45;;;;;;;9.10;8.07;;;12.10;1.00;13.40;100118.00;;;;5058752;28;20542;-78
2021/05/07 09:53:17;;;;;;;8.47;7.57;;;12.10;1.00;13.00;100134.00;;;;5063356;28;20438;-80
2021/05/07 09:55:46;;;;;;;9.60;8.20;;;11.90;1.00;12.50;69022.00;;;;5032770;28;20430;-81
2021/05/07 09:58:15;;;;;;;9.43;8.52;;;11.50;1.00;217.30;161797.00;;;;5031969;28;20422;-80
2021/05/07 10:00:42;;;;;;;8.80;7.90;;;10.90;4.10;11.40;100175.00;;;;5032434;28;20461;-81
2021/05/07 10:03:10;;;;;;;8.65;7.85;;;10.40;10.00;10.70;100187.00;;;;5026614;28;21002;-81
2021/05/07 10:05:38;;;;;;;10.35;9.35;;;9.90;11.50;10.10;100170.00;;;;5043633;28;20538;-82
2021/05/07 10:08:07;;;;;;;9.90;9.00;;;9.30;19.30;9.80;68433.00;;;;5035280;28;20423;-81
2021/05/07 10:10:37;;;;;;;4.10;3.28;;;9.00;29.80;8.60;100275.00;;;;5027652;28;20490;-82
2021/05/07 10:13:10;;;;;;;5.47;3.28;;;8.00;32.20;217.30;159919.00;;;;5039313;28;20453;-80
2021/05/07 10:15:41;;;;;;;4.72;4.10;;;6.70;50.00;7.20;100306.00;;;;5053667;28;20434;-81
2021/05/07 10:18:11;;;;;;;5.80;4.50;;;6.20;62.10;7.00;100317.00;;;;5036416;28;20422;-78
2021/05/07 10:20:40;;;;;;;6.25;5.00;;;5.90;64.70;217.30;159667.00;;;;5034274;28;20418;-78
2021/05/07 10:23:17;;;;;;;7.07;5.00;;;5.80;65.80;7.10;100315.00;;;;5035645;28;20427;-77
2021/05/07 10:25:56;;;;;;;6.27;5.40;;;5.90;65.90;217.30;159760.00;;;;5043293;28;20431;-77
2021/05/07 10:28:26;;;;;;;6.47;5.00;;;5.90;66.50;7.20;100340.00;;;;5039643;28;20437;-79
2021/05/07 10:31:05;;;;;;;6.63;5.60;;;6.00;66.90;7.10;67840.00;;;;5057551;28;20438;-77
2021/05/07 10:33:32;;;;;;;9.13;6.38;;;6.00;65.30;7.20;100333.00;;;;5058467;28;20407;-77
2021/05/07 10:36:00;;;;;;;7.97;6.38;;;6.00;67.20;7.30;100330.00;;;;5061143;28;20574;-76
2021/05/07 10:38:28;;;;;;;7.97;6.43;;;6.00;68.60;7.50;100316.00;;;;5055303;28;20277;-76
2021/05/07 10:41:07;;;;;;;7.00;6.30;;;6.20;69.50;8.20;100316.00;;;;5036058;28;20433;-77
2021/05/07 10:43:39;;;;;;;6.03;4.90;;;6.60;69.10;8.80;100313.00;;;;5040576;28;20457;-78
2021/05/07 10:46:19;;;;;;;6.43;4.97;;;7.10;66.00;9.60;100302.00;;;;5046003;28;20449;-78
2021/05/07 10:48:52;;;;;;;3.50;3.17;;;7.70;62.50;10.40;100291.00;;;;5045394;28;20503;-77
2021/05/07 10:51:22;;;;;;;3.30;3.00;;;8.40;54.80;10.50;100289.00;;;;5046492;28;20471;-77
2021/05/07 10:53:50;;;;;;;3.30;2.53;;;8.70;52.90;10.90;100288.00;;;;5058699;28;20481;-77
2021/05/07 10:56:21;;;;;;;2.57;2.37;;;9.20;53.50;11.10;100297.00;;;;5034836;28;20464;-78
2021/05/07 10:58:51;;;;;;;3.67;2.47;;;9.50;50.10;11.20;100295.00;;;;5035627;28;21631;-78
2021/05/07 11:01:24;;;;;;;3.53;2.33;;;9.70;46.10;11.40;100303.00;;;;5039392;28;20552;-78
2021/05/07 11:04:10;;;;;;;2.90;2.60;;;9.90;50.60;11.70;100319.00;;;;5038852;28;20890;-77